sensor_id;sensor_type;location;lat;lon;timestamp;pressure;altitude;pressure_sealevel;temperature;humidity
56456;BME280;42354;53.218;6.564;2023-04-24T00:01:46;46972.91;;;-142.92;100.00
56456;BME280;42354;53.218;6.564;2023-04-24T00:04:11;46962.66;;;-142.92;100.00
56456;BME280;42354;53.218;6.564;2023-04-24T00:06:39;46964.72;;;-142.92;100.00
56456;BME280;42354;53.218;6.564;2023-04-24T00:09:08;46960.59;;;-142.92;100.00
56456;BME280;42354;53.218;6.564;2023-04-24T00:11:35;46979.06;;;-142.92;100.00
56456;BME280;42354;53.218;6.564;2023-04-24T00:14:01;46970.88;;;-142.92;100.00
56456;BME280;42354;53.218;6.564;2023-04-24T00:16:26;46970.88;;;-142.92;100.00
56456;BME280;42354;53.218;6.564;2023-04-24T00:18:52;46970.88;;;-142.92;100.00
56456;BME280;42354;53.218;6.564;2023-04-24T00:21:17;46979.06;;;-142.92;100.00
56456;BME280;42354;53.218;6.564;2023-04-24T00:23:43;46972.91;;;-142.92;100.00
56456;BME280;42354;53.218;6.564;2023-04-24T00:26:09;46974.97;;;-142.92;100.00
56456;BME280;42354;53.218;6.564;2023-04-24T00:28:35;46960.59;;;-142.92;100.00
56456;BME280;42354;53.218;6.564;2023-04-24T00:31:00;46968.81;;;-142.92;100.00
56456;BME280;42354;53.218;6.564;2023-04-24T00:33:26;46966.75;;;-142.92;100.00
56456;BME280;42354;53.218;6.564;2023-04-24T00:35:51;46972.91;;;-142.92;100.00
56456;BME280;42354;53.218;6.564;2023-04-24T00:38:17;46979.06;;;-142.92;100.00
56456;BME280;42354;53.218;6.564;2023-04-24T00:40:43;46970.88;;;-142.92;100.00
56456;BME280;42354;53.218;6.564;2023-04-24T00:43:08;46958.56;;;-142.92;100.00
56456;BME280;42354;53.218;6.564;2023-04-24T00:45:33;46974.97;;;-142.92;100.00
56456;BME280;42354;53.218;6.564;2023-04-24T00:48:00;46960.59;;;-142.92;100.00
56456;BME280;42354;53.218;6.564;2023-04-24T00:50:25;46948.28;;;-142.92;100.00
56456;BME280;42354;53.218;6.564;2023-04-24T00:52:51;46974.97;;;-142.92;100.00
56456;BME280;42354;53.218;6.564;2023-04-24T00:55:19;46989.34;;;-142.92;100.00
56456;BME280;42354;53.218;6.564;2023-04-24T00:57:45;46968.81;;;-142.92;100.00
56456;BME280;42354;53.218;6.564;2023-04-24T01:00:11;46950.34;;;-142.92;100.00
56456;BME280;42354;53.218;6.564;2023-04-24T01:02:38;46979.06;;;-142.92;100.00
56456;BME280;42354;53.218;6.564;2023-04-24T01:05:09;46979.06;;;-142.92;100.00
56456;BME280;42354;53.218;6.564;2023-04-24T01:07:35;46974.97;;;-142.92;100.00
56456;BME280;42354;53.218;6.564;2023-04-24T01:10:02;46974.97;;;-142.92;100.00
56456;BME280;42354;53.218;6.564;2023-04-24T01:12:28;46985.22;;;-142.92;100.00
56456;BME280;42354;53.218;6.564;2023-04-24T01:14:54;46954.44;;;-142.92;100.00
56456;BME280;42354;53.218;6.564;2023-04-24T01:17:22;46974.97;;;-142.92;100.00
56456;BME280;42354;53.218;6.564;2023-04-24T01:19:47;46960.59;;;-142.92;100.00
56456;BME280;42354;53.218;6.564;2023-04-24T01:22:14;46958.56;;;-142.92;100.00
56456;BME280;42354;53.218;6.564;2023-04-24T01:24:40;46962.66;;;-142.92;100.00
56456;BME280;42354;53.218;6.564;2023-04-24T01:27:06;46977.03;;;-142.92;100.00
56456;BME280;42354;53.218;6.564;2023-04-24T01:29:32;46962.66;;;-142.92;100.00
56456;BME280;42354;53.218;6.564;2023-04-24T01:31:57;46962.66;;;-142.92;100.00
56456;BME280;42354;53.218;6.564;2023-04-24T01:34:25;46958.56;;;-142.92;100.00
56456;BME280;42354;53.218;6.564;2023-04-24T01:36:50;46956.50;;;-142.92;100.00
56456;BME280;42354;53.218;6.564;2023-04-24T01:39:16;46987.28;;;-142.92;100.00
56456;BME280;42354;53.218;6.564;2023-04-24T01:41:42;46977.03;;;-142.92;100.00
56456;BME280;42354;53.218;6.564;2023-04-24T01:44:07;46970.88;;;-142.92;100.00
56456;BME280;42354;53.218;6.564;2023-04-24T01:46:33;46979.06;;;-142.92;100.00
56456;BME280;42354;53.218;6.564;2023-04-24T01:49:00;46983.19;;;-142.92;100.00
56456;BME280;42354;53.218;6.564;2023-04-24T01:51:27;46962.66;;;-142.92;100.00
56456;BME280;42354;53.218;6.564;2023-04-24T01:53:52;46962.66;;;-142.92;100.00
56456;BME280;42354;53.218;6.564;2023-04-24T01:56:20;46972.91;;;-142.92;100.00
56456;BME280;42354;53.218;6.564;2023-04-24T01:58:46;46962.66;;;-142.92;100.00
56456;BME280;42354;53.218;6.564;2023-04-24T02:01:18;46962.66;;;-142.92;100.00
56456;BME280;42354;53.218;6.564;2023-04-24T02:03:43;46989.34;;;-142.92;100.00
56456;BME280;42354;53.218;6.564;2023-04-24T02:06:08;46972.91;;;-142.92;100.00
56456;BME280;42354;53.218;6.564;2023-04-24T02:08:34;46979.06;;;-142.92;100.00
56456;BME280;42354;53.218;6.564;2023-04-24T02:10:59;46979.06;;;-142.92;100.00
56456;BME280;42354;53.218;6.564;2023-04-24T02:13:26;46964.72;;;-142.92;100.00
56456;BME280;42354;53.218;6.564;2023-04-24T02:15:51;46979.06;;;-142.92;100.00
56456;BME280;42354;53.218;6.564;2023-04-24T02:18:18;46960.59;;;-142.92;100.00
56456;BME280;42354;53.218;6.564;2023-04-24T02:20:44;46977.03;;;-142.92;100.00
56456;BME280;42354;53.218;6.564;2023-04-24T02:23:09;46989.34;;;-142.92;100.00
56456;BME280;42354;53.218;6.564;2023-04-24T02:25:34;46983.19;;;-142.92;100.00
56456;BME280;42354;53.218;6.564;2023-04-24T02:28:00;46964.72;;;-142.92;100.00
56456;BME280;42354;53.218;6.564;2023-04-24T02:30:25;46962.66;;;-142.92;100.00
56456;BME280;42354;53.218;6.564;2023-04-24T02:32:51;46985.22;;;-142.92;100.00
56456;BME280;42354;53.218;6.564;2023-04-24T02:35:16;46974.97;;;-142.92;100.00
56456;BME280;42354;53.218;6.564;2023-04-24T02:37:42;46970.88;;;-142.92;100.00
56456;BME280;42354;53.218;6.564;2023-04-24T02:40:08;46981.13;;;-142.92;100.00
56456;BME280;42354;53.218;6.564;2023-04-24T02:42:34;46991.38;;;-142.92;100.00
56456;BME280;42354;53.218;6.564;2023-04-24T02:44:59;46974.97;;;-142.92;100.00
56456;BME280;42354;53.218;6.564;2023-04-24T02:47:25;46987.28;;;-142.92;100.00
56456;BME280;42354;53.218;6.564;2023-04-24T02:49:50;46981.13;;;-142.92;100.00
56456;BME280;42354;53.218;6.564;2023-04-24T02:52:15;46989.34;;;-142.92;100.00
56456;BME280;42354;53.218;6.564;2023-04-24T02:54:42;46974.97;;;-142.92;100.00
56456;BME280;42354;53.218;6.564;2023-04-24T02:57:07;46979.06;;;-142.92;100.00
56456;BME280;42354;53.218;6.564;2023-04-24T02:59:32;46989.34;;;-142.92;100.00
56456;BME280;42354;53.218;6.564;2023-04-24T03:01:58;46966.75;;;-142.92;100.00
56456;BME280;42354;53.218;6.564;2023-04-24T03:04:23;46977.03;;;-142.92;100.00
56456;BME280;42354;53.218;6.564;2023-04-24T03:06:49;46981.13;;;-142.92;100.00
56456;BME280;42354;53.218;6.564;2023-04-24T03:09:16;46974.97;;;-142.92;100.00
56456;BME280;42354;53.218;6.564;2023-04-24T03:11:42;46970.88;;;-142.92;100.00
56456;BME280;42354;53.218;6.564;2023-04-24T03:14:07;46987.28;;;-142.92;100.00
56456;BME280;42354;53.218;6.564;2023-04-24T03:16:32;46954.44;;;-142.92;100.00
56456;BME280;42354;53.218;6.564;2023-04-24T03:18:58;46962.66;;;-142.92;100.00
56456;BME280;42354;53.218;6.564;2023-04-24T03:21:23;46970.88;;;-142.92;100.00
56456;BME280;42354;53.218;6.564;2023-04-24T03:23:48;46989.34;;;-142.92;100.00
56456;BME280;42354;53.218;6.564;2023-04-24T03:26:14;46974.97;;;-142.92;100.00
56456;BME280;42354;53.218;6.564;2023-04-24T03:28:41;46974.97;;;-142.92;100.00
56456;BME280;42354;53.218;6.564;2023-04-24T03:31:07;46974.97;;;-142.92;100.00
56456;BME280;42354;53.218;6.564;2023-04-24T03:33:33;46993.44;;;-142.92;100.00
56456;BME280;42354;53.218;6.564;2023-04-24T03:35:58;46974.97;;;-142.92;100.00
56456;BME280;42354;53.218;6.564;2023-04-24T03:38:23;46985.22;;;-142.92;100.00
56456;BME280;42354;53.218;6.564;2023-04-24T03:40:49;46977.03;;;-142.92;100.00
56456;BME280;42354;53.218;6.564;2023-04-24T03:43:14;46985.22;;;-142.92;100.00
56456;BME280;42354;53.218;6.564;2023-04-24T03:45:40;46974.97;;;-142.92;100.00
56456;BME280;42354;53.218;6.564;2023-04-24T03:48:05;46981.13;;;-142.92;100.00
56456;BME280;42354;53.218;6.564;2023-04-24T03:50:30;46991.38;;;-142.92;100.00
56456;BME280;42354;53.218;6.564;2023-04-24T03:52:56;46958.56;;;-142.92;100.00
56456;BME280;42354;53.218;6.564;2023-04-24T03:55:21;46970.88;;;-142.92;100.00
56456;BME280;42354;53.218;6.564;2023-04-24T03:57:46;46968.81;;;-142.92;100.00
56456;BME280;42354;53.218;6.564;2023-04-24T04:00:12;46974.97;;;-142.92;100.00
56456;BME280;42354;53.218;6.564;2023-04-24T04:02:38;46983.19;;;-142.92;100.00
56456;BME280;42354;53.218;6.564;2023-04-24T04:05:03;46972.91;;;-142.92;100.00
56456;BME280;42354;53.218;6.564;2023-04-24T04:07:28;46987.28;;;-142.92;100.00
56456;BME280;42354;53.218;6.564;2023-04-24T04:09:55;46964.72;;;-142.92;100.00
56456;BME280;42354;53.218;6.564;2023-04-24T04:12:20;46979.06;;;-142.92;100.00
56456;BME280;42354;53.218;6.564;2023-04-24T04:14:46;47001.66;;;-142.92;100.00
56456;BME280;42354;53.218;6.564;2023-04-24T04:17:11;46981.13;;;-142.92;100.00
56456;BME280;42354;53.218;6.564;2023-04-24T04:19:36;46983.19;;;-142.92;100.00
56456;BME280;42354;53.218;6.564;2023-04-24T04:22:02;46977.03;;;-142.92;100.00
56456;BME280;42354;53.218;6.564;2023-04-24T04:24:27;46981.13;;;-142.92;100.00
56456;BME280;42354;53.218;6.564;2023-04-24T04:26:53;46974.97;;;-142.92;100.00
56456;BME280;42354;53.218;6.564;2023-04-24T04:29:21;46983.19;;;-142.92;100.00
56456;BME280;42354;53.218;6.564;2023-04-24T04:31:47;46974.97;;;-142.92;100.00
56456;BME280;42354;53.218;6.564;2023-04-24T04:34:13;47003.69;;;-142.92;100.00
56456;BME280;42354;53.218;6.564;2023-04-24T04:36:39;46974.97;;;-142.92;100.00
56456;BME280;42354;53.218;6.564;2023-04-24T04:39:06;46966.75;;;-142.92;100.00
56456;BME280;42354;53.218;6.564;2023-04-24T04:41:32;46977.03;;;-142.92;100.00
56456;BME280;42354;53.218;6.564;2023-04-24T04:43:57;46970.88;;;-142.92;100.00
56456;BME280;42354;53.218;6.564;2023-04-24T04:46:23;46966.75;;;-142.92;100.00
56456;BME280;42354;53.218;6.564;2023-04-24T04:48:51;46974.97;;;-142.92;100.00
56456;BME280;42354;53.218;6.564;2023-04-24T04:51:17;46981.13;;;-142.92;100.00
56456;BME280;42354;53.218;6.564;2023-04-24T04:53:42;46966.75;;;-142.92;100.00
56456;BME280;42354;53.218;6.564;2023-04-24T04:56:07;46987.28;;;-142.92;100.00
56456;BME280;42354;53.218;6.564;2023-04-24T04:58:33;46977.03;;;-142.92;100.00
56456;BME280;42354;53.218;6.564;2023-04-24T05:00:58;46983.19;;;-142.92;100.00
56456;BME280;42354;53.218;6.564;2023-04-24T05:03:24;46991.38;;;-142.92;100.00
56456;BME280;42354;53.218;6.564;2023-04-24T05:05:49;46981.13;;;-142.92;100.00
56456;BME280;42354;53.218;6.564;2023-04-24T05:08:15;46981.13;;;-142.92;100.00
56456;BME280;42354;53.218;6.564;2023-04-24T05:10:40;46970.88;;;-142.92;100.00
56456;BME280;42354;53.218;6.564;2023-04-24T05:13:05;46970.88;;;-142.92;100.00
56456;BME280;42354;53.218;6.564;2023-04-24T05:15:31;46979.06;;;-142.92;100.00
56456;BME280;42354;53.218;6.564;2023-04-24T05:17:56;46991.38;;;-142.92;100.00
56456;BME280;42354;53.218;6.564;2023-04-24T05:20:22;46993.44;;;-142.92;100.00
56456;BME280;42354;53.218;6.564;2023-04-24T05:22:47;46987.28;;;-142.92;100.00
56456;BME280;42354;53.218;6.564;2023-04-24T05:25:13;46981.13;;;-142.92;100.00
56456;BME280;42354;53.218;6.564;2023-04-24T05:27:38;46995.50;;;-142.92;100.00
56456;BME280;42354;53.218;6.564;2023-04-24T05:30:05;46991.38;;;-142.92;100.00
56456;BME280;42354;53.218;6.564;2023-04-24T05:32:30;46974.97;;;-142.92;100.00
56456;BME280;42354;53.218;6.564;2023-04-24T05:34:55;46983.19;;;-142.92;100.00
56456;BME280;42354;53.218;6.564;2023-04-24T05:37:21;46983.19;;;-142.92;100.00
56456;BME280;42354;53.218;6.564;2023-04-24T05:39:46;47011.91;;;-142.92;100.00
56456;BME280;42354;53.218;6.564;2023-04-24T05:42:12;46991.38;;;-142.92;100.00
56456;BME280;42354;53.218;6.564;2023-04-24T05:44:37;47089.88;;;-142.92;100.00
56456;BME280;42354;53.218;6.564;2023-04-24T05:47:02;47132.97;;;-142.92;100.00
56456;BME280;42354;53.218;6.564;2023-04-24T05:49:28;47128.88;;;-142.92;100.00
56456;BME280;42354;53.218;6.564;2023-04-24T05:51:53;47139.13;;;-142.92;100.00
56456;BME280;42354;53.218;6.564;2023-04-24T05:54:19;47153.50;;;-142.92;100.00
56456;BME280;42354;53.218;6.564;2023-04-24T05:56:44;47157.59;;;-142.92;100.00
56456;BME280;42354;53.218;6.564;2023-04-24T05:59:10;47161.72;;;-142.92;100.00
56456;BME280;42354;53.218;6.564;2023-04-24T06:01:35;47145.28;;;-142.92;100.00
56456;BME280;42354;53.218;6.564;2023-04-24T06:04:02;47174.03;;;-142.92;100.00
56456;BME280;42354;53.218;6.564;2023-04-24T06:06:28;47174.03;;;-142.92;100.00
56456;BME280;42354;53.218;6.564;2023-04-24T06:08:54;47169.91;;;-142.92;100.00
56456;BME280;42354;53.218;6.564;2023-04-24T06:11:19;47169.91;;;-142.92;100.00
56456;BME280;42354;53.218;6.564;2023-04-24T06:13:45;47171.97;;;-142.92;100.00
56456;BME280;42354;53.218;6.564;2023-04-24T06:16:10;47174.03;;;-142.92;100.00
56456;BME280;42354;53.218;6.564;2023-04-24T06:18:36;47180.19;;;-142.92;100.00
56456;BME280;42354;53.218;6.564;2023-04-24T06:21:01;47176.09;;;-142.92;100.00
56456;BME280;42354;53.218;6.564;2023-04-24T06:23:27;47171.97;;;-142.92;100.00
56456;BME280;42354;53.218;6.564;2023-04-24T06:25:52;47176.09;;;-142.92;100.00
56456;BME280;42354;53.218;6.564;2023-04-24T06:28:18;47165.81;;;-142.92;100.00
56456;BME280;42354;53.218;6.564;2023-04-24T06:30:45;47159.66;;;-142.92;100.00
56456;BME280;42354;53.218;6.564;2023-04-24T06:33:10;47174.03;;;-142.92;100.00
56456;BME280;42354;53.218;6.564;2023-04-24T06:35:36;47159.66;;;-142.92;100.00
56456;BME280;42354;53.218;6.564;2023-04-24T06:38:03;47167.88;;;-142.92;100.00
56456;BME280;42354;53.218;6.564;2023-04-24T06:40:29;47171.97;;;-142.92;100.00
56456;BME280;42354;53.218;6.564;2023-04-24T06:42:55;47147.34;;;-142.92;100.00
56456;BME280;42354;53.218;6.564;2023-04-24T06:45:22;47159.66;;;-142.92;100.00
56456;BME280;42354;53.218;6.564;2023-04-24T06:47:47;47184.28;;;-142.92;100.00
56456;BME280;42354;53.218;6.564;2023-04-24T06:50:12;47171.97;;;-142.92;100.00
56456;BME280;42354;53.218;6.564;2023-04-24T06:52:38;47178.13;;;-142.92;100.00
56456;BME280;42354;53.218;6.564;2023-04-24T06:55:04;47192.50;;;-142.92;100.00
56456;BME280;42354;53.218;6.564;2023-04-24T06:57:31;47171.97;;;-142.92;100.00
56456;BME280;42354;53.218;6.564;2023-04-24T06:59:57;47165.81;;;-142.92;100.00
56456;BME280;42354;53.218;6.564;2023-04-24T07:02:22;47167.88;;;-142.92;100.00
56456;BME280;42354;53.218;6.564;2023-04-24T07:04:48;47155.56;;;-142.92;100.00
56456;BME280;42354;53.218;6.564;2023-04-24T07:07:14;47167.88;;;-142.92;100.00
56456;BME280;42354;53.218;6.564;2023-04-24T07:09:40;47132.97;;;-142.92;100.00
56456;BME280;42354;53.218;6.564;2023-04-24T07:12:10;47108.34;;;-142.92;100.00
56456;BME280;42354;53.218;6.564;2023-04-24T07:14:36;47147.34;;;-142.92;100.00
56456;BME280;42354;53.218;6.564;2023-04-24T07:17:03;47153.50;;;-142.92;100.00
56456;BME280;42354;53.218;6.564;2023-04-24T07:19:29;47163.75;;;-142.92;100.00
56456;BME280;42354;53.218;6.564;2023-04-24T07:21:54;47176.09;;;-142.92;100.00
56456;BME280;42354;53.218;6.564;2023-04-24T07:24:20;47165.81;;;-142.92;100.00
56456;BME280;42354;53.218;6.564;2023-04-24T07:26:46;47161.72;;;-142.92;100.00
56456;BME280;42354;53.218;6.564;2023-04-24T07:29:12;47157.59;;;-142.92;100.00
56456;BME280;42354;53.218;6.564;2023-04-24T07:31:38;47159.66;;;-142.92;100.00
56456;BME280;42354;53.218;6.564;2023-04-24T07:34:07;47157.59;;;-142.92;100.00
56456;BME280;42354;53.218;6.564;2023-04-24T07:36:37;47147.34;;;-142.92;100.00
56456;BME280;42354;53.218;6.564;2023-04-24T07:39:06;47141.19;;;-142.92;100.00
56456;BME280;42354;53.218;6.564;2023-04-24T07:41:31;47151.44;;;-142.92;100.00
56456;BME280;42354;53.218;6.564;2023-04-24T07:43:59;47147.34;;;-142.92;100.00
56456;BME280;42354;53.218;6.564;2023-04-24T07:46:24;47116.56;;;-142.92;100.00
56456;BME280;42354;53.218;6.564;2023-04-24T07:48:54;47091.94;;;-142.92;100.00
56456;BME280;42354;53.218;6.564;2023-04-24T07:51:20;47091.94;;;-142.92;100.00
56456;BME280;42354;53.218;6.564;2023-04-24T07:53:45;47075.53;;;-142.92;100.00
56456;BME280;42354;53.218;6.564;2023-04-24T07:56:11;47048.84;;;-142.92;100.00
56456;BME280;42354;53.218;6.564;2023-04-24T07:58:36;46991.38;;;-142.92;100.00
56456;BME280;42354;53.218;6.564;2023-04-24T08:01:02;46946.25;;;-142.92;100.00
56456;BME280;42354;53.218;6.564;2023-04-24T08:03:27;46956.50;;;-142.92;100.00
56456;BME280;42354;53.218;6.564;2023-04-24T08:05:53;46944.19;;;-142.92;100.00
56456;BME280;42354;53.218;6.564;2023-04-24T08:08:21;46974.97;;;-142.92;100.00
56456;BME280;42354;53.218;6.564;2023-04-24T08:10:47;47007.81;;;-142.92;100.00
56456;BME280;42354;53.218;6.564;2023-04-24T08:13:12;47040.63;;;-142.92;100.00
56456;BME280;42354;53.218;6.564;2023-04-24T08:15:38;46964.72;;;-142.92;100.00
56456;BME280;42354;53.218;6.564;2023-04-24T08:18:03;46997.53;;;-142.92;100.00
56456;BME280;42354;53.218;6.564;2023-04-24T08:20:30;47024.22;;;-142.92;100.00
56456;BME280;42354;53.218;6.564;2023-04-24T08:22:55;46964.72;;;-142.92;100.00
56456;BME280;42354;53.218;6.564;2023-04-24T08:25:21;46950.34;;;-142.92;100.00
56456;BME280;42354;53.218;6.564;2023-04-24T08:27:50;46897.00;;;-142.92;100.00
56456;BME280;42354;53.218;6.564;2023-04-24T08:30:16;46907.25;;;-142.92;100.00
56456;BME280;42354;53.218;6.564;2023-04-24T08:32:41;46823.13;;;-142.92;100.00
56456;BME280;42354;53.218;6.564;2023-04-24T08:35:07;46771.81;;;-142.92;100.00
56456;BME280;42354;53.218;6.564;2023-04-24T08:37:36;46792.34;;;-142.92;100.00
56456;BME280;42354;53.218;6.564;2023-04-24T08:40:06;46755.41;;;-142.92;100.00
56456;BME280;42354;53.218;6.564;2023-04-24T08:42:39;46681.53;;;-142.92;100.00
56456;BME280;42354;53.218;6.564;2023-04-24T08:45:06;46679.50;;;-142.92;100.00
56456;BME280;42354;53.218;6.564;2023-04-24T08:47:33;46714.38;;;-142.92;100.00
56456;BME280;42354;53.218;6.564;2023-04-24T08:50:02;46687.69;;;-142.92;100.00
56456;BME280;42354;53.218;6.564;2023-04-24T08:52:29;46724.63;;;-142.92;100.00
56456;BME280;42354;53.218;6.564;2023-04-24T08:54:55;46675.38;;;-142.92;100.00
56456;BME280;42354;53.218;6.564;2023-04-24T08:57:22;46866.22;;;-142.92;100.00
56456;BME280;42354;53.218;6.564;2023-04-24T08:59:48;46987.28;;;-142.92;100.00
56456;BME280;42354;53.218;6.564;2023-04-24T09:02:14;46983.19;;;-142.92;100.00
56456;BME280;42354;53.218;6.564;2023-04-24T09:04:40;46979.06;;;-142.92;100.00
56456;BME280;42354;53.218;6.564;2023-04-24T09:07:08;46987.28;;;-142.92;100.00
56456;BME280;42354;53.218;6.564;2023-04-24T09:09:35;46974.97;;;-142.92;100.00
56456;BME280;42354;53.218;6.564;2023-04-24T09:12:05;46993.44;;;-142.92;100.00
56456;BME280;42354;53.218;6.564;2023-04-24T09:14:31;46972.91;;;-142.92;100.00
56456;BME280;42354;53.218;6.564;2023-04-24T09:16:58;46972.91;;;-142.92;100.00
56456;BME280;42354;53.218;6.564;2023-04-24T09:19:23;46989.34;;;-142.92;100.00
56456;BME280;42354;53.218;6.564;2023-04-24T09:21:52;46966.75;;;-142.92;100.00
56456;BME280;42354;53.218;6.564;2023-04-24T09:24:19;46991.38;;;-142.92;100.00
56456;BME280;42354;53.218;6.564;2023-04-24T09:26:48;46979.06;;;-142.92;100.00
56456;BME280;42354;53.218;6.564;2023-04-24T09:29:17;46983.19;;;-142.92;100.00
56456;BME280;42354;53.218;6.564;2023-04-24T09:31:44;46989.34;;;-142.92;99.52
56456;BME280;42354;53.218;6.564;2023-04-24T09:34:10;47003.69;;;-142.92;98.64
56456;BME280;42354;53.218;6.564;2023-04-24T09:39:07;46989.34;;;-142.92;98.49
56456;BME280;42354;53.218;6.564;2023-04-24T09:41:48;46995.50;;;-142.92;98.67
56456;BME280;42354;53.218;6.564;2023-04-24T09:44:24;46995.50;;;-142.92;98.42
56456;BME280;42354;53.218;6.564;2023-04-24T09:46:53;46987.28;;;-142.92;98.76
56456;BME280;42354;53.218;6.564;2023-04-24T09:49:31;46989.34;;;-142.92;99.42
56456;BME280;42354;53.218;6.564;2023-04-24T09:52:06;47001.66;;;-142.92;100.00
56456;BME280;42354;53.218;6.564;2023-04-24T09:54:31;46991.38;;;-142.92;100.00
56456;BME280;42354;53.218;6.564;2023-04-24T09:56:58;46995.50;;;-142.92;100.00
56456;BME280;42354;53.218;6.564;2023-04-24T09:59:25;46972.91;;;-142.92;96.87
56456;BME280;42354;53.218;6.564;2023-04-24T10:01:50;46989.34;;;-142.92;95.40
56456;BME280;42354;53.218;6.564;2023-04-24T10:04:21;46985.22;;;-142.92;93.18
56456;BME280;42354;53.218;6.564;2023-04-24T10:06:50;46987.28;;;-142.92;92.18
56456;BME280;42354;53.218;6.564;2023-04-24T10:09:17;47007.81;;;-142.92;90.37
56456;BME280;42354;53.218;6.564;2023-04-24T10:11:45;47001.66;;;-142.92;88.44
56456;BME280;42354;53.218;6.564;2023-04-24T10:14:16;46985.22;;;-142.92;87.18
56456;BME280;42354;53.218;6.564;2023-04-24T10:16:42;46997.53;;;-142.92;87.12
56456;BME280;42354;53.218;6.564;2023-04-24T10:19:08;46974.97;;;-142.92;85.49
56456;BME280;42354;53.218;6.564;2023-04-24T10:21:34;46985.22;;;-142.92;82.22
56456;BME280;42354;53.218;6.564;2023-04-24T10:24:00;46995.50;;;-142.92;80.76
56456;BME280;42354;53.218;6.564;2023-04-24T10:26:28;47001.66;;;-142.92;80.99
56456;BME280;42354;53.218;6.564;2023-04-24T10:28:57;46995.50;;;-142.92;81.66
56456;BME280;42354;53.218;6.564;2023-04-24T10:31:24;46981.13;;;-142.92;79.15
56456;BME280;42354;53.218;6.564;2023-04-24T10:33:51;46989.34;;;-142.92;78.64
56456;BME280;42354;53.218;6.564;2023-04-24T10:36:17;46979.06;;;-142.92;76.95
56456;BME280;42354;53.218;6.564;2023-04-24T10:38:45;46974.97;;;-142.92;77.73
56456;BME280;42354;53.218;6.564;2023-04-24T10:41:12;46983.19;;;-142.92;78.63
56456;BME280;42354;53.218;6.564;2023-04-24T10:43:42;46981.13;;;-142.92;78.79
56456;BME280;42354;53.218;6.564;2023-04-24T10:46:08;46993.44;;;-142.92;77.44
56456;BME280;42354;53.218;6.564;2023-04-24T10:48:35;47001.66;;;-142.92;78.22
56456;BME280;42354;53.218;6.564;2023-04-24T10:51:01;46977.03;;;-142.92;77.95
56456;BME280;42354;53.218;6.564;2023-04-24T10:53:28;46991.38;;;-142.92;76.71
56456;BME280;42354;53.218;6.564;2023-04-24T10:56:05;46987.28;;;-142.92;75.87
56456;BME280;42354;53.218;6.564;2023-04-24T10:58:50;46974.97;;;-142.92;75.34
56456;BME280;42354;53.218;6.564;2023-04-24T11:01:28;46989.34;;;-142.92;76.18
56456;BME280;42354;53.218;6.564;2023-04-24T11:04:03;46993.44;;;-142.92;75.98
56456;BME280;42354;53.218;6.564;2023-04-24T11:06:33;46983.19;;;-142.92;73.90
56456;BME280;42354;53.218;6.564;2023-04-24T11:09:05;47001.66;;;-142.92;71.89
56456;BME280;42354;53.218;6.564;2023-04-24T11:11:32;46991.38;;;-142.92;72.96
56456;BME280;42354;53.218;6.564;2023-04-24T11:14:03;46985.22;;;-142.92;74.17
56456;BME280;42354;53.218;6.564;2023-04-24T11:16:39;46989.34;;;-142.92;75.51
56456;BME280;42354;53.218;6.564;2023-04-24T11:26:58;47003.69;;;-142.92;75.01
56456;BME280;42354;53.218;6.564;2023-04-24T11:29:48;46974.97;;;-142.92;74.70
56456;BME280;42354;53.218;6.564;2023-04-24T11:32:27;46987.28;;;-142.92;74.92
56456;BME280;42354;53.218;6.564;2023-04-24T11:37:26;46987.28;;;-142.92;73.81
56456;BME280;42354;53.218;6.564;2023-04-24T11:39:56;46991.38;;;-142.92;74.33
56456;BME280;42354;53.218;6.564;2023-04-24T11:42:22;46999.59;;;-142.92;74.63
56456;BME280;42354;53.218;6.564;2023-04-24T11:44:49;46987.28;;;-142.92;74.26
56456;BME280;42354;53.218;6.564;2023-04-24T11:47:15;47003.69;;;-142.92;73.04
56456;BME280;42354;53.218;6.564;2023-04-24T11:49:41;46987.28;;;-142.92;72.38
56456;BME280;42354;53.218;6.564;2023-04-24T11:52:06;46983.19;;;-142.92;72.77
56456;BME280;42354;53.218;6.564;2023-04-24T11:54:32;46979.06;;;-142.92;72.45
56456;BME280;42354;53.218;6.564;2023-04-24T11:56:57;47020.13;;;-142.92;71.69
56456;BME280;42354;53.218;6.564;2023-04-24T11:59:24;46985.22;;;-142.92;73.02
56456;BME280;42354;53.218;6.564;2023-04-24T12:01:49;46989.34;;;-142.92;73.34
56456;BME280;42354;53.218;6.564;2023-04-24T12:04:17;46974.97;;;-142.92;74.28
56456;BME280;42354;53.218;6.564;2023-04-24T12:09:26;46989.34;;;-142.92;78.17
56456;BME280;42354;53.218;6.564;2023-04-24T12:11:58;46989.34;;;-142.92;80.69
56456;BME280;42354;53.218;6.564;2023-04-24T12:14:24;46972.91;;;-142.92;80.46
56456;BME280;42354;53.218;6.564;2023-04-24T12:16:50;46999.59;;;-142.92;80.91
56456;BME280;42354;53.218;6.564;2023-04-24T12:19:21;46964.72;;;-142.92;82.35
56456;BME280;42354;53.218;6.564;2023-04-24T12:21:59;46987.28;;;-142.92;82.70
56456;BME280;42354;53.218;6.564;2023-04-24T12:24:25;46989.34;;;-142.92;82.45
56456;BME280;42354;53.218;6.564;2023-04-24T12:26:50;46987.28;;;-142.92;81.88
56456;BME280;42354;53.218;6.564;2023-04-24T12:29:22;46983.19;;;-142.92;80.61
56456;BME280;42354;53.218;6.564;2023-04-24T12:31:48;46977.03;;;-142.92;79.34
56456;BME280;42354;53.218;6.564;2023-04-24T12:34:21;46983.19;;;-142.92;76.40
56456;BME280;42354;53.218;6.564;2023-04-24T12:36:47;46989.34;;;-142.92;75.36
56456;BME280;42354;53.218;6.564;2023-04-24T12:39:19;46985.22;;;-142.92;72.91
56456;BME280;42354;53.218;6.564;2023-04-24T12:41:55;46987.28;;;-142.92;73.09
56456;BME280;42354;53.218;6.564;2023-04-24T12:44:34;46989.34;;;-142.92;71.99
56456;BME280;42354;53.218;6.564;2023-04-24T12:47:01;47003.69;;;-142.92;69.91